createdAt,value
2019-03-30T00:01:11.876Z,7.70
2019-03-30T00:03:40.306Z,7.70
2019-03-30T00:06:08.735Z,7.70
2019-03-30T00:08:37.161Z,7.70
2019-03-30T00:11:05.591Z,7.70
2019-03-30T00:13:33.994Z,7.70
2019-03-30T00:16:08.035Z,7.70
2019-03-30T00:18:36.467Z,7.70
2019-03-30T00:21:05.012Z,7.80
2019-03-30T00:23:33.434Z,7.80
2019-03-30T00:26:01.864Z,7.70
2019-03-30T00:28:30.283Z,7.60
2019-03-30T00:31:01.443Z,7.60
2019-03-30T00:33:29.844Z,7.60
2019-03-30T00:35:58.267Z,7.50
2019-03-30T00:38:26.671Z,7.50
2019-03-30T00:40:55.111Z,7.50
2019-03-30T00:43:23.534Z,7.60
2019-03-30T00:45:51.942Z,7.50
2019-03-30T00:48:20.389Z,7.40
2019-03-30T00:50:48.807Z,7.40
2019-03-30T00:53:17.209Z,7.30
2019-03-30T00:55:45.639Z,7.20
2019-03-30T00:58:14.038Z,7.10
2019-03-30T01:00:42.490Z,7.00
2019-03-30T01:03:11.015Z,7.00
2019-03-30T01:05:39.420Z,6.90
2019-03-30T01:08:07.820Z,6.90
2019-03-30T01:10:36.222Z,6.80
2019-03-30T01:13:04.652Z,6.80
2019-03-30T01:15:33.077Z,6.80
2019-03-30T01:18:01.682Z,6.70
2019-03-30T01:20:30.115Z,6.70
2019-03-30T01:22:58.996Z,6.60
2019-03-30T01:25:27.405Z,6.60
2019-03-30T01:27:55.907Z,6.60
2019-03-30T01:30:24.347Z,6.60
2019-03-30T01:32:52.763Z,6.60
2019-03-30T01:35:21.376Z,6.50
2019-03-30T01:37:49.874Z,6.50
2019-03-30T01:40:18.301Z,6.50
2019-03-30T01:42:46.703Z,6.50
2019-03-30T01:45:15.491Z,6.50
2019-03-30T01:47:43.910Z,6.50
2019-03-30T01:50:17.561Z,6.50
2019-03-30T01:52:42.906Z,6.40
2019-03-30T01:55:11.760Z,6.40
2019-03-30T01:57:40.161Z,6.40
2019-03-30T02:00:10.405Z,6.40
2019-03-30T02:02:38.882Z,6.30
2019-03-30T02:05:07.636Z,6.30
2019-03-30T02:07:36.058Z,6.30
2019-03-30T02:10:06.231Z,6.30
2019-03-30T02:12:34.633Z,6.30
2019-03-30T02:15:03.291Z,6.30
2019-03-30T02:17:31.712Z,6.30
2019-03-30T02:20:00.345Z,6.30
2019-03-30T02:22:28.842Z,6.30
2019-03-30T02:24:57.256Z,6.20
2019-03-30T02:27:26.501Z,6.20
2019-03-30T02:29:54.906Z,6.20
2019-03-30T02:32:23.458Z,6.10
2019-03-30T02:34:51.966Z,6.10
2019-03-30T02:37:20.364Z,6.10
2019-03-30T02:39:49.219Z,6.10
2019-03-30T02:42:17.661Z,6.00
2019-03-30T02:44:46.153Z,6.00
2019-03-30T02:47:14.583Z,6.00
2019-03-30T02:49:43.053Z,6.00
2019-03-30T02:52:11.473Z,6.00
2019-03-30T02:54:39.895Z,5.90
2019-03-30T02:57:08.724Z,5.90
2019-03-30T02:59:37.160Z,5.90
2019-03-30T03:02:05.586Z,5.90
2019-03-30T03:04:34.064Z,5.90
2019-03-30T03:07:02.491Z,5.80
2019-03-30T03:12:26.601Z,5.80
2019-03-30T03:14:55.059Z,5.80
2019-03-30T03:17:23.591Z,5.80
2019-03-30T03:19:51.993Z,5.80
2019-03-30T03:22:20.423Z,5.70
2019-03-30T03:24:49.020Z,5.70
2019-03-30T03:27:17.427Z,5.70
2019-03-30T03:29:45.848Z,5.70
2019-03-30T03:32:14.300Z,5.70
2019-03-30T03:34:42.714Z,5.60
2019-03-30T03:37:11.152Z,5.60
2019-03-30T03:39:39.576Z,5.60
2019-03-30T03:42:08.174Z,5.60
2019-03-30T03:44:36.611Z,5.60
2019-03-30T03:47:05.189Z,5.60
2019-03-30T03:49:33.603Z,5.60
2019-03-30T03:52:02.287Z,5.60
2019-03-30T03:54:31.587Z,5.60
2019-03-30T03:57:00.273Z,5.60
2019-03-30T03:59:29.047Z,5.70
2019-03-30T04:02:00.059Z,5.80
2019-03-30T04:04:30.203Z,5.80
2019-03-30T04:07:00.941Z,5.70
2019-03-30T04:09:32.183Z,5.70
2019-03-30T04:12:00.587Z,5.80
2019-03-30T04:14:30.063Z,5.80
2019-03-30T04:16:58.491Z,5.70
2019-03-30T04:19:26.916Z,5.70
2019-03-30T04:21:55.822Z,5.70
2019-03-30T04:24:24.311Z,5.60
2019-03-30T04:26:53.052Z,5.50
2019-03-30T04:29:21.492Z,5.50
2019-03-30T04:31:50.074Z,5.50
2019-03-30T04:34:18.487Z,5.50
2019-03-30T04:36:46.921Z,5.60
2019-03-30T04:39:15.337Z,5.60
2019-03-30T04:41:43.770Z,5.60
2019-03-30T04:44:12.746Z,5.60
2019-03-30T04:46:41.188Z,5.50
2019-03-30T04:49:09.646Z,5.60
2019-03-30T04:51:38.059Z,5.50
2019-03-30T04:54:06.499Z,5.60
2019-03-30T04:56:34.918Z,5.70
2019-03-30T04:59:03.374Z,5.80
2019-03-30T05:01:32.216Z,5.90
2019-03-30T05:04:00.639Z,5.80
2019-03-30T05:06:29.238Z,5.70
2019-03-30T05:09:18.503Z,5.60
2019-03-30T05:11:46.935Z,5.60
2019-03-30T05:14:15.416Z,5.60
2019-03-30T05:16:43.832Z,5.60
2019-03-30T05:19:12.233Z,5.50
2019-03-30T05:21:40.642Z,5.50
2019-03-30T05:27:08.606Z,5.40
2019-03-30T05:29:37.038Z,5.40
2019-03-30T05:32:05.470Z,5.50
2019-03-30T05:34:33.922Z,5.60
2019-03-30T05:37:02.530Z,5.70
2019-03-30T05:39:30.977Z,5.70
2019-03-30T05:41:59.371Z,5.80
2019-03-30T05:44:28.458Z,5.80
2019-03-30T05:46:56.894Z,6.00
2019-03-30T05:49:25.292Z,6.20
2019-03-30T05:51:53.718Z,6.30
2019-03-30T05:54:22.146Z,6.40
2019-03-30T05:56:50.556Z,6.40
2019-03-30T05:59:19.366Z,6.50
2019-03-30T06:01:47.773Z,6.60
2019-03-30T06:04:16.171Z,6.60
2019-03-30T06:06:44.674Z,6.70
2019-03-30T06:09:13.094Z,6.70
2019-03-30T06:11:41.525Z,6.70
2019-03-30T06:14:09.999Z,6.80
2019-03-30T06:16:38.411Z,6.90
2019-03-30T06:19:06.830Z,6.90
2019-03-30T06:21:35.234Z,7.10
2019-03-30T06:24:03.670Z,7.30
2019-03-30T06:26:32.095Z,7.50
2019-03-30T06:29:00.526Z,7.80
2019-03-30T06:31:28.954Z,8.00
2019-03-30T06:33:57.354Z,8.20
2019-03-30T06:36:25.759Z,8.40
2019-03-30T06:38:54.202Z,8.60
2019-03-30T06:41:22.630Z,8.80
2019-03-30T06:43:51.071Z,8.90
2019-03-30T06:46:19.478Z,9.40
2019-03-30T06:48:47.923Z,9.90
2019-03-30T06:51:16.749Z,10.20
2019-03-30T06:53:45.177Z,11.60
2019-03-30T06:56:13.607Z,12.70
2019-03-30T06:58:42.318Z,13.30
2019-03-30T07:01:11.572Z,14.20
2019-03-30T07:03:40.055Z,15.00
2019-03-30T07:06:10.329Z,15.10
2019-03-30T07:08:41.890Z,14.60
2019-03-30T07:11:20.984Z,14.20
2019-03-30T07:13:43.781Z,13.90
2019-03-30T07:16:12.205Z,13.70
2019-03-30T07:18:42.208Z,13.80
2019-03-30T07:21:10.635Z,14.20
2019-03-30T07:23:39.070Z,14.30
2019-03-30T07:26:07.558Z,14.30
2019-03-30T07:28:36.067Z,14.20
2019-03-30T07:31:04.596Z,14.30
2019-03-30T07:33:33.082Z,14.50
2019-03-30T07:36:01.499Z,14.70
2019-03-30T07:38:29.907Z,14.90
2019-03-30T07:40:59.809Z,14.90
2019-03-30T07:43:28.267Z,15.00
2019-03-30T07:45:56.702Z,16.10
2019-03-30T07:48:25.322Z,17.10
2019-03-30T07:50:59.790Z,17.80
2019-03-30T07:53:28.192Z,17.90
2019-03-30T07:56:07.710Z,18.60
2019-03-30T07:58:26.782Z,20.40
2019-03-30T08:00:55.914Z,20.90
2019-03-30T08:03:24.318Z,20.20
2019-03-30T08:05:54.377Z,19.00
2019-03-30T08:08:23.027Z,18.80
2019-03-30T08:10:55.215Z,19.30
2019-03-30T08:13:23.653Z,19.60
2019-03-30T08:15:52.107Z,20.50
2019-03-30T08:18:20.531Z,21.30
2019-03-30T08:20:48.943Z,21.00
2019-03-30T08:23:17.381Z,20.90
2019-03-30T08:25:45.779Z,20.50
2019-03-30T08:28:14.352Z,20.50
2019-03-30T08:30:42.794Z,21.20
2019-03-30T08:33:11.286Z,21.70
2019-03-30T08:35:39.711Z,20.80
2019-03-30T08:38:08.610Z,20.20
2019-03-30T08:40:37.038Z,20.20
2019-03-30T08:43:05.461Z,20.80
2019-03-30T08:45:33.889Z,21.50
2019-03-30T08:48:02.320Z,21.50
2019-03-30T08:50:30.746Z,21.30
2019-03-30T08:52:59.182Z,20.60
2019-03-30T08:55:27.615Z,19.90
2019-03-30T08:57:56.044Z,19.20
2019-03-30T09:00:27.539Z,18.80
2019-03-30T09:02:55.939Z,18.60
2019-03-30T09:05:24.379Z,18.70
2019-03-30T09:07:52.823Z,18.80
2019-03-30T09:10:21.225Z,19.40
2019-03-30T09:12:50.098Z,19.60
2019-03-30T09:15:18.507Z,19.60
2019-03-30T09:17:47.066Z,19.70
2019-03-30T09:20:15.563Z,19.40
2019-03-30T09:22:43.991Z,19.30
2019-03-30T09:25:12.535Z,19.50
2019-03-30T09:27:40.951Z,19.30
2019-03-30T09:30:10.731Z,19.10
2019-03-30T09:32:39.173Z,19.00
2019-03-30T09:35:08.206Z,19.10
2019-03-30T09:37:36.718Z,19.00
2019-03-30T09:40:07.388Z,18.90
2019-03-30T09:42:35.983Z,18.80
2019-03-30T09:45:06.522Z,18.80
2019-03-30T09:47:34.949Z,18.70
2019-03-30T09:50:05.201Z,18.70
2019-03-30T09:52:33.627Z,18.60
2019-03-30T09:55:02.069Z,18.60
2019-03-30T09:57:30.474Z,18.60
2019-03-30T09:59:58.914Z,18.70
2019-03-30T10:02:27.324Z,18.70
2019-03-30T10:04:55.723Z,18.90
2019-03-30T10:07:24.170Z,18.70
2019-03-30T10:09:52.589Z,18.70
2019-03-30T10:12:21.172Z,18.80
2019-03-30T10:14:49.593Z,18.80
2019-03-30T10:17:18.031Z,18.90
2019-03-30T10:19:53.051Z,19.00
2019-03-30T10:22:16.788Z,19.30
2019-03-30T10:24:45.191Z,19.40
2019-03-30T10:27:13.601Z,19.50
2019-03-30T10:29:42.014Z,19.60
2019-03-30T10:32:10.443Z,19.80
2019-03-30T10:34:39.752Z,20.30
2019-03-30T10:37:08.458Z,20.50
2019-03-30T10:39:37.286Z,20.70
2019-03-30T10:42:05.694Z,20.60
2019-03-30T10:44:34.125Z,20.50
2019-03-30T10:47:02.558Z,20.50
2019-03-30T10:49:30.967Z,20.00
2019-03-30T10:51:59.447Z,19.60
2019-03-30T10:54:27.884Z,19.40
2019-03-30T10:56:56.311Z,19.40
2019-03-30T10:59:24.779Z,19.40
2019-03-30T11:01:53.327Z,19.50
2019-03-30T11:04:21.756Z,19.50
2019-03-30T11:06:50.160Z,19.50
2019-03-30T11:09:18.596Z,19.60
2019-03-30T11:11:47.025Z,19.60
2019-03-30T11:14:15.438Z,19.40
2019-03-30T11:16:43.926Z,19.40
2019-03-30T11:19:12.355Z,19.30
2019-03-30T11:21:40.800Z,19.30
2019-03-30T11:24:09.189Z,19.20
2019-03-30T11:26:37.634Z,19.30
2019-03-30T11:29:06.062Z,19.30
2019-03-30T11:31:34.464Z,19.20
2019-03-30T11:34:02.888Z,19.10
2019-03-30T11:36:31.334Z,19.20
2019-03-30T11:38:59.739Z,19.00
2019-03-30T11:41:28.174Z,18.70
2019-03-30T11:43:56.595Z,18.70
2019-03-30T11:46:25.035Z,18.60
2019-03-30T11:51:48.232Z,18.60
2019-03-30T11:54:16.617Z,18.60
2019-03-30T11:56:45.055Z,18.60
2019-03-30T11:59:13.867Z,18.60
2019-03-30T12:01:42.257Z,18.60
2019-03-30T12:04:10.676Z,18.50
2019-03-30T12:06:39.086Z,18.50
2019-03-30T12:09:08.530Z,18.30
2019-03-30T12:11:37.437Z,18.20
2019-03-30T12:14:05.856Z,18.20
2019-03-30T12:16:34.249Z,18.10
2019-03-30T12:19:02.729Z,18.30
2019-03-30T12:21:31.301Z,18.30
2019-03-30T12:23:59.733Z,18.30
2019-03-30T12:26:28.175Z,18.30
2019-03-30T12:28:56.582Z,18.30
2019-03-30T12:31:25.004Z,18.20
2019-03-30T12:33:53.413Z,18.20
2019-03-30T12:36:21.857Z,18.20
2019-03-30T12:38:50.256Z,18.20
2019-03-30T12:41:18.682Z,18.20
2019-03-30T12:43:47.105Z,18.20
2019-03-30T12:46:15.530Z,18.20
2019-03-30T12:48:43.966Z,18.20
2019-03-30T12:51:12.395Z,18.20
2019-03-30T12:53:49.940Z,18.20
2019-03-30T12:56:10.981Z,18.30
2019-03-30T12:58:39.430Z,18.30
2019-03-30T13:01:07.843Z,18.40
2019-03-30T13:03:36.271Z,18.50
2019-03-30T13:06:04.776Z,18.50
2019-03-30T13:08:33.173Z,18.50
2019-03-30T13:11:01.627Z,18.40
2019-03-30T13:13:30.041Z,18.30
2019-03-30T13:15:58.496Z,18.30
2019-03-30T13:18:27.461Z,18.10
2019-03-30T13:21:02.015Z,18.10
2019-03-30T13:23:30.419Z,18.00
2019-03-30T13:26:04.080Z,17.90
2019-03-30T13:28:29.026Z,17.80
2019-03-30T13:31:00.401Z,17.90
2019-03-30T13:33:28.842Z,17.90
2019-03-30T13:35:57.256Z,17.80
2019-03-30T13:38:26.003Z,17.80
2019-03-30T13:40:54.484Z,17.70
2019-03-30T13:43:22.910Z,17.70
2019-03-30T13:45:51.330Z,17.60
2019-03-30T13:48:19.831Z,17.60
2019-03-30T13:50:48.262Z,17.60
2019-03-30T13:53:16.680Z,17.60
2019-03-30T13:55:45.126Z,17.60
2019-03-30T13:58:13.546Z,17.50
2019-03-30T14:00:42.035Z,17.50
2019-03-30T14:03:10.470Z,17.50
2019-03-30T14:05:38.893Z,17.50
2019-03-30T14:08:07.336Z,17.40
2019-03-30T14:10:38.876Z,17.50
2019-03-30T14:13:05.878Z,17.40
2019-03-30T14:15:34.310Z,17.40
2019-03-30T14:18:02.727Z,17.30
2019-03-30T14:20:31.142Z,17.30
2019-03-30T14:23:01.088Z,17.30
2019-03-30T14:25:29.510Z,17.20
2019-03-30T14:27:57.928Z,17.20
2019-03-30T14:30:26.375Z,17.20
2019-03-30T14:32:54.806Z,17.10
2019-03-30T14:35:23.213Z,17.10
2019-03-30T14:37:51.625Z,17.00
2019-03-30T14:40:20.034Z,17.00
2019-03-30T14:42:48.455Z,17.00
2019-03-30T14:45:17.162Z,17.10
2019-03-30T14:47:45.606Z,17.20
2019-03-30T14:50:14.244Z,17.10
2019-03-30T14:52:42.675Z,17.20
2019-03-30T14:55:11.173Z,17.10
2019-03-30T14:57:39.580Z,17.00
2019-03-30T15:00:10.515Z,17.00
2019-03-30T15:02:38.938Z,16.90
2019-03-30T15:05:08.210Z,16.90
2019-03-30T15:07:36.716Z,16.80
2019-03-30T15:10:08.031Z,16.80
2019-03-30T15:12:37.451Z,16.60
2019-03-30T15:15:08.960Z,16.70
2019-03-30T15:17:40.443Z,16.60
2019-03-30T15:20:10.262Z,16.40
2019-03-30T15:22:38.971Z,16.40
2019-03-30T15:25:10.719Z,16.40
2019-03-30T15:27:39.120Z,16.40
2019-03-30T15:30:08.568Z,16.30
2019-03-30T15:32:37.003Z,16.30
2019-03-30T15:35:07.756Z,16.20
2019-03-30T15:37:36.208Z,16.20
2019-03-30T15:40:06.692Z,16.20
2019-03-30T15:42:39.881Z,16.10
2019-03-30T15:45:08.783Z,16.00
2019-03-30T15:47:37.205Z,16.00
2019-03-30T15:50:07.867Z,16.00
2019-03-30T15:52:36.322Z,16.00
2019-03-30T15:55:06.588Z,16.00
2019-03-30T15:57:35.922Z,15.90
2019-03-30T16:00:07.667Z,15.90
2019-03-30T16:02:36.347Z,16.00
2019-03-30T16:05:07.320Z,16.00
2019-03-30T16:07:35.727Z,16.00
2019-03-30T16:10:04.687Z,15.80
2019-03-30T16:12:33.456Z,15.90
2019-03-30T16:15:02.700Z,15.90
2019-03-30T16:17:31.134Z,15.90
2019-03-30T16:19:59.749Z,15.90
2019-03-30T16:22:28.187Z,15.90
2019-03-30T16:24:56.578Z,15.90
2019-03-30T16:27:29.217Z,15.80
2019-03-30T16:29:58.486Z,15.80
2019-03-30T16:32:25.287Z,15.70
2019-03-30T16:34:53.771Z,15.70
2019-03-30T16:37:22.170Z,15.70
2019-03-30T16:39:50.599Z,15.70
2019-03-30T16:42:19.284Z,15.60
2019-03-30T16:44:47.666Z,15.70
2019-03-30T16:47:16.072Z,15.60
2019-03-30T16:49:44.510Z,15.60
2019-03-30T16:52:12.931Z,15.50
2019-03-30T16:54:41.357Z,15.40
2019-03-30T16:57:09.794Z,15.30
2019-03-30T16:59:39.267Z,15.40
2019-03-30T17:02:07.932Z,15.30
2019-03-30T17:04:36.349Z,15.10
2019-03-30T17:07:04.819Z,15.00
2019-03-30T17:09:33.242Z,14.90
2019-03-30T17:12:01.663Z,14.90
2019-03-30T17:14:30.067Z,14.80
2019-03-30T17:16:58.597Z,14.60
2019-03-30T17:19:27.082Z,14.60
2019-03-30T17:21:55.514Z,14.50
2019-03-30T17:24:23.940Z,14.40
2019-03-30T17:26:52.368Z,14.30
2019-03-30T17:29:20.803Z,14.20
2019-03-30T17:31:49.235Z,14.10
2019-03-30T17:34:17.711Z,14.10
2019-03-30T17:36:46.147Z,14.00
2019-03-30T17:39:14.565Z,13.90
2019-03-30T17:41:42.979Z,13.80
2019-03-30T17:44:11.408Z,13.80
2019-03-30T17:46:39.846Z,13.70
2019-03-30T17:49:08.265Z,13.50
2019-03-30T17:51:36.703Z,13.40
2019-03-30T17:54:05.154Z,13.40
2019-03-30T17:56:33.564Z,13.20
2019-03-30T17:59:01.995Z,13.20
2019-03-30T18:01:30.432Z,13.10
2019-03-30T18:03:58.862Z,13.00
2019-03-30T18:06:27.310Z,13.00
2019-03-30T18:08:56.531Z,12.80
2019-03-30T18:11:25.126Z,12.70
2019-03-30T18:13:53.984Z,12.60
2019-03-30T18:16:22.674Z,12.60
2019-03-30T18:18:51.121Z,12.50
2019-03-30T18:21:19.566Z,12.40
2019-03-30T18:23:48.051Z,12.40
2019-03-30T18:26:16.474Z,12.30
2019-03-30T18:28:44.939Z,12.30
2019-03-30T18:31:13.617Z,12.10
2019-03-30T18:33:42.532Z,12.10
2019-03-30T18:36:31.837Z,12.00
2019-03-30T18:39:09.380Z,11.90
2019-03-30T18:41:30.522Z,11.70
2019-03-30T18:44:02.033Z,11.70
2019-03-30T18:46:29.131Z,11.70
2019-03-30T18:48:57.556Z,11.60
2019-03-30T18:51:27.612Z,11.60
2019-03-30T18:53:56.056Z,11.50
2019-03-30T18:56:27.767Z,11.50
2019-03-30T18:58:54.657Z,11.50
2019-03-30T19:01:23.089Z,11.50
2019-03-30T19:03:51.557Z,11.50
2019-03-30T19:06:19.992Z,11.40
2019-03-30T19:08:48.417Z,11.40
2019-03-30T19:11:16.835Z,11.40
2019-03-30T19:13:45.235Z,11.30
2019-03-30T19:16:15.733Z,11.20
2019-03-30T19:18:44.161Z,11.20
2019-03-30T19:21:12.615Z,11.20
2019-03-30T19:23:41.050Z,11.20
2019-03-30T19:26:16.563Z,11.20
2019-03-30T19:28:55.703Z,11.10
2019-03-30T19:31:15.219Z,11.00
2019-03-30T19:33:43.656Z,10.90
2019-03-30T19:36:14.693Z,11.00
2019-03-30T19:38:43.161Z,10.80
2019-03-30T19:41:11.583Z,10.80
2019-03-30T19:43:40.005Z,10.60
2019-03-30T19:46:08.430Z,10.50
2019-03-30T19:48:37.235Z,10.40
2019-03-30T19:51:05.777Z,10.40
2019-03-30T19:53:34.205Z,10.50
2019-03-30T19:56:04.254Z,10.50
2019-03-30T19:58:32.696Z,10.50
2019-03-30T20:01:01.124Z,10.50
2019-03-30T20:03:29.524Z,10.50
2019-03-30T20:05:57.940Z,10.50
2019-03-30T20:08:26.370Z,10.50
2019-03-30T20:10:54.836Z,10.50
2019-03-30T20:13:23.716Z,10.40
2019-03-30T20:15:52.201Z,10.30
2019-03-30T20:18:20.635Z,10.20
2019-03-30T20:20:49.070Z,10.10
2019-03-30T20:23:17.506Z,10.10
2019-03-30T20:25:45.910Z,10.00
2019-03-30T20:28:14.359Z,9.80
2019-03-30T20:30:42.767Z,9.90
2019-03-30T20:33:11.183Z,10.00
2019-03-30T20:35:39.617Z,10.00
2019-03-30T20:38:08.032Z,10.00
2019-03-30T20:40:36.459Z,9.90
2019-03-30T20:43:04.900Z,9.90
2019-03-30T20:45:33.310Z,9.70
2019-03-30T20:48:01.737Z,9.60
2019-03-30T20:50:30.225Z,9.40
2019-03-30T20:52:58.785Z,9.30
2019-03-30T20:55:27.210Z,9.40
2019-03-30T20:57:55.633Z,9.40
2019-03-30T21:00:24.035Z,9.40
2019-03-30T21:02:52.490Z,9.50
2019-03-30T21:05:20.903Z,9.50
2019-03-30T21:07:49.346Z,9.40
2019-03-30T21:10:18.209Z,9.40
2019-03-30T21:13:05.998Z,9.50
2019-03-30T21:15:34.514Z,9.50
2019-03-30T21:18:03.006Z,9.50
2019-03-30T21:20:31.431Z,9.60
2019-03-30T21:22:59.940Z,9.40
2019-03-30T21:25:28.415Z,9.40
2019-03-30T21:27:56.859Z,9.30
2019-03-30T21:30:25.266Z,9.20
2019-03-30T21:32:53.667Z,9.30
2019-03-30T21:35:22.110Z,9.30
2019-03-30T21:37:50.550Z,9.30
2019-03-30T21:40:18.987Z,9.30
2019-03-30T21:42:47.407Z,9.30
2019-03-30T21:45:15.833Z,9.40
2019-03-30T21:47:44.265Z,9.40
2019-03-30T21:50:12.927Z,9.40
2019-03-30T21:52:41.703Z,9.30
2019-03-30T21:55:10.450Z,9.30
2019-03-30T21:57:38.874Z,9.30
2019-03-30T22:00:10.591Z,9.10
2019-03-30T22:02:37.962Z,9.10
2019-03-30T22:05:06.707Z,9.10
2019-03-30T22:07:35.295Z,9.10
2019-03-30T22:10:06.920Z,9.10
2019-03-30T22:12:35.356Z,9.00
2019-03-30T22:15:05.480Z,9.00
2019-03-30T22:17:33.883Z,8.90
2019-03-30T22:20:02.306Z,9.00
2019-03-30T22:22:30.716Z,8.90
2019-03-30T22:24:59.159Z,8.90
2019-03-30T22:27:27.582Z,8.90
2019-03-30T22:29:55.998Z,9.00
2019-03-30T22:32:24.437Z,8.90
2019-03-30T22:34:52.858Z,8.90
2019-03-30T22:37:21.277Z,8.90
2019-03-30T22:39:49.699Z,8.90
2019-03-30T22:42:18.205Z,8.90
2019-03-30T22:44:46.678Z,8.80
2019-03-30T22:47:15.115Z,8.80
2019-03-30T22:49:43.534Z,8.90
2019-03-30T22:52:11.966Z,8.80
2019-03-30T22:54:40.373Z,8.80
2019-03-30T22:57:08.802Z,8.80
2019-03-30T22:59:37.238Z,8.80
2019-03-30T23:02:06.000Z,8.90
2019-03-30T23:04:34.404Z,8.70
2019-03-30T23:07:02.859Z,8.80
2019-03-30T23:09:31.353Z,8.80
2019-03-30T23:12:00.060Z,8.90
2019-03-30T23:14:28.459Z,8.90
2019-03-30T23:16:56.910Z,9.00
2019-03-30T23:19:25.306Z,9.00
2019-03-30T23:21:53.744Z,9.10
2019-03-30T23:24:22.555Z,9.10
2019-03-30T23:26:51.159Z,9.00
2019-03-30T23:29:19.935Z,8.90
2019-03-30T23:31:48.467Z,9.00
2019-03-30T23:34:19.958Z,9.00
2019-03-30T23:36:48.360Z,9.10
2019-03-30T23:39:17.218Z,8.80
2019-03-30T23:41:45.639Z,8.70
2019-03-30T23:44:14.061Z,8.70
2019-03-30T23:46:42.541Z,8.80
2019-03-30T23:49:10.987Z,8.80
2019-03-30T23:51:39.560Z,9.00
2019-03-30T23:54:11.293Z,9.10
2019-03-30T23:56:39.698Z,9.20
2019-03-30T23:59:08.110Z,9.30
